Time;durP1;ratioP1;P1;durP2;ratioP2;P2;SDS_P1;SDS_P2;PMS_P1;PMS_P2;Temp;Humidity;BMP_temperature;BMP_pressure;BME280_temperature;BME280_humidity;BME280_pressure;Samples;Min_cycle;Max_cycle;Signal;HPM_P1;HPM_P2
2023/01/17 06:32:01;;;;;;;9.00;4.53;;;0.20;99.90;;;;;;5089298;28;20321;-68
2023/01/17 06:34:27;;;;;;;8.85;4.68;;;0.10;99.90;;;;;;5089048;28;20030;-68
2023/01/17 06:36:53;;;;;;;12.32;4.93;;;0.20;99.90;;;;;;5088779;28;20094;-68
2023/01/17 06:39:18;;;;;;;7.88;4.70;;;0.20;99.90;;;;;;5088194;28;20031;-68
2023/01/17 06:41:44;;;;;;;8.85;3.83;;;0.30;99.90;;;;;;5080369;28;20013;-69
2023/01/17 06:44:11;;;;;;;7.68;3.70;;;0.30;99.90;;;;;;5068971;28;20363;-66
2023/01/17 06:46:36;;;;;;;7.85;4.00;;;0.40;99.90;;;;;;5068248;28;20496;-69
2023/01/17 06:49:02;;;;;;;8.73;4.22;;;0.40;99.90;;;;;;5067658;28;20025;-69
2023/01/17 06:51:28;;;;;;;8.70;4.15;;;0.50;99.90;;;;;;5068637;28;20021;-68
2023/01/17 16:41:20;;;;;;;6.68;3.55;;;-0.90;99.90;;;;;;5171972;27;20326;-76
2023/01/17 16:43:55;;;;;;;7.63;3.13;;;-1.00;99.90;;;;;;5151066;27;20027;-69
2023/01/17 16:46:20;;;;;;;6.70;3.38;;;-0.90;99.90;;;;;;5135350;27;20047;-73
2023/01/17 16:48:46;;;;;;;5.47;3.78;;;-0.90;99.90;;;;;;5130644;28;20027;-69
2023/01/17 16:51:12;;;;;;;7.88;3.75;;;-0.70;99.90;;;;;;5143894;27;20479;-70
2023/01/17 16:53:37;;;;;;;5.88;3.90;;;-0.60;99.90;;;;;;5132617;27;20023;-64
2023/01/17 16:56:12;;;;;;;7.03;4.10;;;-0.60;99.90;;;;;;5151249;27;20425;-71
2023/01/17 16:58:38;;;;;;;6.45;4.22;;;-0.50;99.90;;;;;;5150805;27;20051;-68
2023/01/17 17:01:10;;;;;;;5.57;4.05;;;-0.50;99.90;;;;;;5119358;28;20039;-71
2023/01/17 17:03:36;;;;;;;6.20;3.60;;;-0.40;99.90;;;;;;5130101;28;20360;-69
2023/01/17 17:06:01;;;;;;;8.18;4.30;;;-0.40;99.90;;;;;;5129900;28;20519;-71
2023/01/17 17:08:28;;;;;;;7.60;4.13;;;-0.40;99.90;;;;;;5134284;27;20018;-69
2023/01/17 17:10:54;;;;;;;7.28;4.28;;;-0.30;99.90;;;;;;5151034;27;20555;-68
2023/01/17 17:13:20;;;;;;;10.63;4.72;;;-0.30;99.90;;;;;;5148572;27;20050;-69
2023/01/17 17:15:45;;;;;;;9.40;5.10;;;-0.40;99.90;;;;;;5112228;28;20063;-68
2023/01/17 17:18:16;;;;;;;7.53;4.88;;;-0.40;99.90;;;;;;5129604;28;20103;-67
2023/01/17 17:20:43;;;;;;;9.85;4.82;;;-0.40;99.90;;;;;;5129524;28;20114;-67
2023/01/17 17:23:09;;;;;;;10.05;6.15;;;-0.40;99.90;;;;;;5129787;28;20020;-71
2023/01/17 17:25:35;;;;;;;8.23;5.18;;;-0.40;99.90;;;;;;5129587;28;20049;-72
2023/01/17 17:28:02;;;;;;;9.88;5.93;;;-0.40;99.90;;;;;;5123113;27;20106;-71
2023/01/17 17:30:28;;;;;;;10.00;6.05;;;-0.50;99.90;;;;;;5150379;27;20102;-66
2023/01/17 17:32:53;;;;;;;10.45;6.07;;;-0.50;99.90;;;;;;5150329;27;20011;-67
2023/01/17 17:35:19;;;;;;;11.15;5.75;;;-0.50;99.90;;;;;;5149385;27;20038;-66
2023/01/17 17:37:44;;;;;;;9.85;6.63;;;-0.50;99.90;;;;;;5150566;27;20034;-66
2023/01/17 17:40:10;;;;;;;15.18;7.82;;;-0.50;99.90;;;;;;5127863;27;20053;-66
2023/01/17 17:42:36;;;;;;;17.40;8.90;;;-0.50;99.90;;;;;;5118846;28;20418;-67
2023/01/17 17:45:02;;;;;;;13.75;9.00;;;-0.50;99.90;;;;;;5129259;28;20039;-63
2023/01/17 17:47:29;;;;;;;12.98;8.80;;;-0.60;99.90;;;;;;5123707;28;20024;-64
2023/01/17 17:49:55;;;;;;;14.63;8.27;;;-0.60;99.90;;;;;;5108819;28;20376;-64
2023/01/17 17:52:20;;;;;;;13.82;7.05;;;-0.60;99.90;;;;;;5095575;28;20024;-64
2023/01/17 17:54:47;;;;;;;11.00;6.70;;;-0.60;99.90;;;;;;5094710;28;20032;-65
2023/01/17 17:57:13;;;;;;;10.25;5.82;;;-0.60;99.90;;;;;;5094802;28;20023;-64
2023/01/17 17:59:38;;;;;;;7.13;5.72;;;-0.60;99.90;;;;;;5095192;28;20036;-63
2023/01/17 18:02:05;;;;;;;8.20;5.13;;;-0.70;99.90;;;;;;5097437;28;20468;-63
2023/01/17 18:04:31;;;;;;;9.50;5.20;;;-0.70;99.90;;;;;;5113938;28;20068;-63
2023/01/17 18:06:57;;;;;;;8.50;5.22;;;-0.70;99.90;;;;;;5115404;28;20027;-69
2023/01/17 18:09:22;;;;;;;8.48;4.28;;;-0.70;99.90;;;;;;5097150;28;20486;-65
2023/01/17 18:11:48;;;;;;;9.68;4.55;;;-0.70;99.90;;;;;;5095325;28;20047;-65
2023/01/17 18:14:14;;;;;;;8.13;5.13;;;-0.70;99.90;;;;;;5095201;28;20032;-67
2023/01/17 18:16:42;;;;;;;8.73;5.10;;;-0.70;99.90;;;;;;5094361;28;20032;-67
2023/01/17 18:19:13;;;;;;;10.48;5.45;;;-0.70;99.90;;;;;;5095148;28;20024;-66
2023/01/17 18:21:39;;;;;;;8.63;4.22;;;-0.70;99.90;;;;;;5094779;28;20035;-67
2023/01/17 18:24:08;;;;;;;8.90;4.43;;;-0.70;99.90;;;;;;5094379;28;20024;-69
2023/01/17 18:26:55;;;;;;;9.02;4.30;;;-0.80;99.90;;;;;;5095025;28;20020;-69
2023/01/17 18:29:21;;;;;;;7.93;3.80;;;-0.80;99.90;;;;;;5094646;28;20028;-69
2023/01/17 18:31:49;;;;;;;7.97;4.90;;;-0.80;99.90;;;;;;5094155;28;20039;-68
2023/01/17 18:34:19;;;;;;;9.63;4.32;;;-0.80;99.90;;;;;;5094338;28;20020;-68
2023/01/17 18:36:45;;;;;;;7.18;3.67;;;-0.80;99.90;;;;;;5093917;28;20031;-68
2023/01/17 18:39:14;;;;;;;6.97;3.65;;;-0.80;99.90;;;;;;5110645;27;20028;-68
2023/01/17 18:41:40;;;;;;;7.05;3.63;;;-0.70;99.90;;;;;;5135060;27;20058;-66
2023/01/17 18:44:07;;;;;;;7.45;3.83;;;-0.60;99.90;;;;;;5134757;27;20027;-67
2023/01/17 18:46:33;;;;;;;7.75;4.18;;;-0.60;99.90;;;;;;5135007;27;20019;-66
2023/01/17 18:48:59;;;;;;;4.45;3.60;;;-0.60;99.90;;;;;;5118371;27;20024;-66
2023/01/17 18:51:27;;;;;;;9.80;4.30;;;-0.50;99.90;;;;;;5114336;28;20020;-67
2023/01/17 18:53:53;;;;;;;7.70;4.25;;;-0.50;99.90;;;;;;5114394;28;20023;-67
2023/01/17 18:56:21;;;;;;;7.90;4.35;;;-0.50;99.90;;;;;;5114127;28;20055;-67
2023/01/17 18:58:48;;;;;;;8.02;4.68;;;-0.60;99.90;;;;;;5114840;27;20054;-66
2023/01/17 19:01:20;;;;;;;8.82;4.68;;;-0.60;99.90;;;;;;5114151;28;20472;-67
2023/01/17 19:03:48;;;;;;;11.18;5.47;;;-0.70;99.90;;;;;;5095629;28;20027;-67
2023/01/17 19:06:17;;;;;;;9.57;5.35;;;-0.70;99.90;;;;;;5113483;28;20051;-68
2023/01/17 19:08:43;;;;;;;14.18;6.55;;;-0.70;99.90;;;;;;5095968;28;20019;-66
2023/01/17 19:11:10;;;;;;;10.45;6.57;;;-0.80;99.90;;;;;;5095915;28;20015;-67
2023/01/17 19:13:37;;;;;;;10.85;5.82;;;-0.80;99.90;;;;;;5128895;27;20080;-66
2023/01/17 19:16:05;;;;;;;11.05;6.93;;;-0.90;99.90;;;;;;5134608;27;20027;-67
2023/01/17 19:18:31;;;;;;;11.40;5.95;;;-0.90;99.90;;;;;;5134686;27;20100;-67
2023/01/17 19:21:17;;;;;;;11.68;6.63;;;-0.90;99.90;;;;;;5133448;27;20092;-67
2023/01/17 19:23:46;;;;;;;12.35;6.32;;;-1.00;99.90;;;;;;5134499;27;20379;-67
2023/01/17 19:26:13;;;;;;;10.52;6.18;;;-1.00;99.90;;;;;;5133637;27;20019;-67
2023/01/17 19:28:40;;;;;;;11.63;6.30;;;-1.00;99.90;;;;;;5129656;27;20026;-67
2023/01/17 19:31:11;;;;;;;11.10;6.88;;;-1.00;99.90;;;;;;5113977;28;20020;-68
2023/01/17 19:33:39;;;;;;;9.88;5.72;;;-1.00;99.90;;;;;;5113369;28;20028;-67
2023/01/17 19:36:07;;;;;;;8.30;5.70;;;-1.00;99.90;;;;;;5115106;27;20046;-67
2023/01/17 19:38:35;;;;;;;11.00;5.97;;;-1.10;99.90;;;;;;5134004;27;20051;-67
2023/01/17 19:41:11;;;;;;;8.82;5.82;;;-1.10;99.90;;;;;;5133377;27;20043;-66
2023/01/17 19:43:38;;;;;;;8.57;5.35;;;-1.10;99.90;;;;;;5134270;27;20050;-67
2023/01/17 19:46:04;;;;;;;6.53;4.97;;;-1.10;99.90;;;;;;5134493;27;20016;-66
2023/01/17 19:48:30;;;;;;;9.38;4.68;;;-1.10;99.90;;;;;;5133474;27;20041;-67
2023/01/17 19:51:06;;;;;;;6.60;4.32;;;-1.10;99.90;;;;;;5133941;27;20107;-67
2023/01/17 19:53:32;;;;;;;5.53;4.32;;;-1.10;99.90;;;;;;5115821;27;20057;-66
2023/01/17 19:55:57;;;;;;;9.43;4.65;;;-1.10;99.90;;;;;;5118653;27;20051;-66
2023/01/17 19:58:23;;;;;;;8.48;4.72;;;-1.10;99.90;;;;;;5113208;28;20051;-67
2023/01/17 20:00:50;;;;;;;12.07;6.60;;;-1.10;99.90;;;;;;5131953;27;20039;-67
2023/01/17 20:03:16;;;;;;;9.05;5.55;;;-1.20;99.90;;;;;;5131439;27;20028;-66
2023/01/17 20:05:43;;;;;;;14.18;6.28;;;-1.20;99.90;;;;;;5133857;27;20106;-67
2023/01/17 20:08:09;;;;;;;10.73;5.88;;;-1.20;99.90;;;;;;5133170;27;20363;-67
2023/01/17 20:10:34;;;;;;;11.55;6.43;;;-1.20;99.90;;;;;;5134148;27;20082;-68
